Time;durP1;ratioP1;P1;durP2;ratioP2;P2;SDS_P1;SDS_P2;PMS_P1;PMS_P2;Temp;Humidity;BMP_temperature;BMP_pressure;BME280_temperature;BME280_humidity;BME280_pressure;Samples;Min_cycle;Max_cycle;Signal;HPM_P1;HPM_P2
2022/04/27 00:00:15;;;;;;;0.25;0.25;;;;;;;12.15;71.29;101456.28;5076655;28;20028;-62
2022/04/27 00:02:41;;;;;;;1.30;1.17;;;;;;;12.17;71.36;101449.41;5066929;28;20214;-62
2022/04/27 00:05:08;;;;;;;2.65;0.82;;;;;;;12.10;71.51;101457.28;5066486;28;20033;-60
2022/04/27 00:07:33;;;;;;;1.00;0.80;;;;;;;12.12;71.84;101452.34;5062614;28;20131;-62
2022/04/27 00:09:59;;;;;;;2.40;0.93;;;;;;;12.00;72.09;101454.31;5068388;28;20029;-61
2022/04/27 00:12:25;;;;;;;1.40;0.65;;;;;;;11.99;72.22;101450.03;5067584;28;20402;-62
2022/04/27 00:14:50;;;;;;;0.82;0.82;;;;;;;12.03;72.58;101451.72;5055472;28;20423;-61
2022/04/27 00:17:16;;;;;;;0.93;0.55;;;;;;;12.04;72.23;101450.56;5049412;28;20029;-61
2022/04/27 00:19:41;;;;;;;1.85;1.05;;;;;;;12.10;71.82;101451.13;5052952;28;20036;-62
2022/04/27 00:22:43;;;;;;;0.80;0.68;;;;;;;11.97;72.42;101455.78;5057182;28;20032;-62
2022/04/27 00:25:16;;;;;;;0.77;0.70;;;;;;;11.98;72.25;101451.94;5040524;28;20051;-62
2022/04/27 00:27:42;;;;;;;1.50;1.40;;;;;;;11.89;72.79;101448.63;5042558;28;20119;-62
2022/04/27 00:30:08;;;;;;;3.63;0.80;;;;;;;11.83;73.40;101455.38;5061319;28;20033;-62
2022/04/27 00:32:36;;;;;;;3.15;0.95;;;;;;;11.88;73.52;101457.84;5057391;28;20124;-62
2022/04/27 00:35:01;;;;;;;0.95;0.57;;;;;;;11.91;72.93;101451.75;5075914;28;20032;-60
2022/04/27 00:37:26;;;;;;;1.63;0.80;;;;;;;11.80;73.25;101461.47;5067278;28;20137;-62
2022/04/27 00:39:52;;;;;;;6.95;1.00;;;;;;;11.78;72.53;101453.72;5067622;28;20086;-62
2022/04/27 00:42:21;;;;;;;0.65;0.65;;;;;;;11.89;71.64;101455.91;5050777;28;20067;-61
2022/04/27 00:44:47;;;;;;;1.55;0.70;;;;;;;11.67;73.13;101458.03;5069156;28;20044;-62
2022/04/27 00:47:14;;;;;;;0.60;0.60;;;;;;;11.64;73.46;101456.00;5064361;28;20036;-61
2022/04/27 00:49:48;;;;;;;3.13;1.15;;;;;;;11.58;73.75;101453.84;5067736;28;20124;-61
2022/04/27 00:52:15;;;;;;;0.73;0.73;;;;;;;11.59;73.71;101461.59;5050699;28;20075;-62
2022/04/27 00:54:42;;;;;;;2.35;0.95;;;;;;;11.60;73.71;101462.41;5044244;28;20056;-62
2022/04/27 00:57:08;;;;;;;1.27;1.17;;;;;;;11.51;73.81;101459.06;5050226;28;20119;-62
2022/04/27 00:59:34;;;;;;;4.97;0.90;;;;;;;11.42;74.60;101459.16;5043315;28;20401;-61
2022/04/27 01:02:00;;;;;;;0.85;0.70;;;;;;;11.38;74.63;101471.75;5059070;28;20452;-61
2022/04/27 01:04:26;;;;;;;1.15;0.88;;;;;;;11.32;74.70;101473.16;5070733;28;20123;-62
2022/04/27 01:06:51;;;;;;;1.67;0.80;;;;;;;11.31;74.40;101473.47;5054040;28;20037;-62
2022/04/27 01:09:17;;;;;;;1.35;0.88;;;;;;;11.28;74.62;101479.53;5069509;28;20029;-61
2022/04/27 01:11:44;;;;;;;8.13;1.05;;;;;;;11.24;74.74;101475.94;5072088;28;20040;-63
2022/04/27 01:14:09;;;;;;;1.48;0.82;;;;;;;11.27;75.31;101475.25;5071188;28;20403;-62
2022/04/27 01:16:35;;;;;;;1.30;0.85;;;;;;;11.29;75.06;101471.13;5056189;28;20028;-62
2022/04/27 01:19:00;;;;;;;1.55;0.90;;;;;;;11.26;75.34;101468.31;5050939;28;20040;-62
2022/04/27 01:21:26;;;;;;;1.63;0.77;;;;;;;11.32;74.84;101472.34;5068932;28;20040;-62
2022/04/27 01:24:04;;;;;;;1.33;1.08;;;;;;;11.27;75.13;101472.56;5066764;28;20025;-62
2022/04/27 01:26:29;;;;;;;1.90;0.85;;;;;;;11.23;75.35;101477.06;5064722;28;20024;-62
2022/04/27 01:28:54;;;;;;;0.65;0.47;;;;;;;11.07;75.91;101471.56;5072492;28;20032;-61
2022/04/27 01:31:20;;;;;;;0.65;0.57;;;;;;;11.07;75.80;101485.03;5053615;28;20044;-62
2022/04/27 01:33:47;;;;;;;5.78;0.98;;;;;;;10.94;76.21;101490.78;5055981;28;20047;-63
2022/04/27 01:36:13;;;;;;;1.73;0.70;;;;;;;10.97;76.64;101492.81;5062554;28;20380;-62
2022/04/27 01:38:40;;;;;;;3.60;1.02;;;;;;;10.98;76.25;101480.88;5071421;28;20124;-62
2022/04/27 01:41:06;;;;;;;0.57;0.40;;;;;;;11.01;75.34;101482.94;5037285;28;20059;-62
2022/04/27 01:43:33;;;;;;;3.28;1.10;;;;;;;10.88;75.95;101490.19;5054020;28;20043;-62
2022/04/27 01:45:59;;;;;;;1.42;0.70;;;;;;;10.82;76.67;101489.63;5172813;22;20057;-64
2022/04/27 01:48:28;;;;;;;1.17;0.65;;;;;;;10.79;76.99;101493.00;5064989;28;20121;-64
2022/04/27 01:50:54;;;;;;;0.73;0.73;;;;;;;10.67;77.33;101500.28;5067593;28;20029;-64
2022/04/27 01:56:06;;;;;;;2.03;0.93;;;;;;;10.64;77.96;101496.38;5042540;28;20395;-64
2022/04/27 01:58:37;;;;;;;0.65;0.60;;;;;;;10.73;77.36;101494.34;5033561;28;20283;-64
2022/04/27 02:01:03;;;;;;;0.60;0.60;;;;;;;10.75;77.19;101491.31;5049963;28;20103;-64
2022/04/27 02:03:28;;;;;;;0.90;0.73;;;;;;;10.70;77.34;101502.31;5049035;28;20029;-64
2022/04/27 02:05:56;;;;;;;1.75;0.60;;;;;;;10.61;77.58;101502.41;5048813;28;20037;-64
2022/04/27 02:08:23;;;;;;;1.77;0.60;;;;;;;10.55;78.11;101502.97;5046171;28;20443;-64
2022/04/27 02:10:49;;;;;;;1.30;1.20;;;;;;;10.49;78.26;101505.06;5039165;28;20101;-64
2022/04/27 02:13:14;;;;;;;1.65;0.80;;;;;;;10.51;77.70;101500.13;5051650;28;20032;-64
2022/04/27 02:15:40;;;;;;;2.70;1.35;;;;;;;10.49;78.15;101507.00;5032104;28;20039;-64
2022/04/27 02:18:19;;;;;;;1.63;1.00;;;;;;;10.43;78.49;101501.00;5032685;28;20072;-64
2022/04/27 02:20:48;;;;;;;1.00;0.60;;;;;;;10.32;78.44;101505.25;5048818;28;20036;-64
2022/04/27 02:23:13;;;;;;;1.52;0.70;;;;;;;10.37;78.88;101507.75;5033763;28;20048;-64
2022/04/27 02:25:39;;;;;;;0.85;0.57;;;;;;;10.33;78.53;101506.03;5031173;28;20060;-64
2022/04/27 02:28:07;;;;;;;1.48;1.00;;;;;;;10.32;78.79;101502.53;5028980;28;20376;-64
2022/04/27 02:30:33;;;;;;;0.88;0.70;;;;;;;10.24;79.17;101510.72;5035805;28;20057;-64
2022/04/27 02:32:59;;;;;;;0.95;0.70;;;;;;;10.25;78.62;101509.59;5025048;28;20479;-64
2022/04/27 02:35:24;;;;;;;0.60;0.60;;;;;;;10.28;78.23;101512.41;5046588;28;20091;-64
2022/04/27 02:37:50;;;;;;;2.75;1.10;;;;;;;10.17;78.56;101513.94;5037545;28;20033;-64
2022/04/27 02:40:15;;;;;;;2.20;1.00;;;;;;;10.14;78.96;101516.50;5048474;28;20032;-64
2022/04/27 02:42:41;;;;;;;0.85;0.85;;;;;;;10.14;79.68;101522.69;5049549;28;20410;-64
2022/04/27 02:45:08;;;;;;;1.98;1.17;;;;;;;10.08;79.56;101526.66;5041150;28;20173;-64
2022/04/27 02:47:34;;;;;;;1.23;0.70;;;;;;;10.05;80.45;101524.59;5045355;28;20028;-64
2022/04/27 02:52:54;;;;;;;1.50;0.75;;;;;;;10.07;79.83;101524.28;5033407;28;20515;-64
2022/04/27 02:55:30;;;;;;;1.00;0.68;;;;;;;10.00;79.58;101522.94;5030205;28;20495;-64
2022/04/27 02:57:56;;;;;;;2.30;1.65;;;;;;;9.90;80.96;101527.91;5032761;28;20419;-64
2022/04/27 03:00:23;;;;;;;0.90;0.63;;;;;;;9.91;80.16;101534.88;5028890;28;20139;-64
2022/04/27 03:02:49;;;;;;;1.17;0.80;;;;;;;9.81;81.22;101529.88;5030831;28;20101;-64
2022/04/27 03:05:16;;;;;;;2.65;1.17;;;;;;;9.86;80.94;101527.78;5048601;28;20111;-64
2022/04/27 03:07:42;;;;;;;0.63;0.63;;;;;;;9.85;80.87;101528.88;5032165;28;20032;-64
2022/04/27 03:10:08;;;;;;;1.48;1.17;;;;;;;9.85;80.68;101528.88;5032384;28;20090;-64
2022/04/27 03:12:37;;;;;;;0.88;0.60;;;;;;;9.92;80.55;101522.97;5034860;28;20102;-64
2022/04/27 03:15:05;;;;;;;1.02;0.98;;;;;;;9.94;80.22;101520.75;5046132;28;20035;-64
2022/04/27 03:17:31;;;;;;;1.42;0.73;;;;;;;9.74;81.12;101519.63;5032088;28;20060;-64
2022/04/27 03:19:58;;;;;;;2.40;1.10;;;;;;;9.75;81.38;101523.09;5031835;28;20033;-64
2022/04/27 03:22:24;;;;;;;1.17;0.82;;;;;;;9.77;80.38;101527.06;5039018;28;20029;-64
2022/04/27 03:24:50;;;;;;;1.98;0.95;;;;;;;9.71;81.18;101517.59;5049609;28;20040;-64
2022/04/27 03:27:18;;;;;;;0.88;0.88;;;;;;;9.69;81.36;101527.09;5023747;28;20024;-64
2022/04/27 03:29:45;;;;;;;0.77;0.60;;;;;;;9.63;81.71;101531.09;5047722;28;20540;-64
2022/04/27 03:32:11;;;;;;;1.88;0.95;;;;;;;9.60;81.86;101534.44;5017273;28;20033;-64
2022/04/27 03:34:41;;;;;;;2.85;1.02;;;;;;;9.51;82.29;101539.06;5027276;28;20049;-64
2022/04/27 03:37:08;;;;;;;1.83;1.30;;;;;;;9.53;82.42;101540.31;5029093;28;20041;-64
2022/04/27 03:39:34;;;;;;;1.48;1.05;;;;;;;9.56;82.91;101547.72;5035512;28;20390;-64
2022/04/27 03:42:00;;;;;;;0.90;0.77;;;;;;;9.60;82.68;101543.28;5020600;28;20029;-64
2022/04/27 03:44:26;;;;;;;1.75;0.68;;;;;;;9.65;81.77;101553.88;5033055;28;20505;-64
2022/04/27 03:46:53;;;;;;;1.83;1.10;;;;;;;9.57;82.60;101561.97;5037880;28;20392;-64
2022/04/27 03:49:20;;;;;;;0.90;0.90;;;;;;;9.59;82.90;101568.59;5027856;28;20032;-64
2022/04/27 03:51:46;;;;;;;1.50;0.88;;;;;;;9.65;82.55;101566.53;5031954;28;20066;-64
2022/04/27 03:54:12;;;;;;;11.15;0.70;;;;;;;9.66;81.80;101558.13;5022066;28;20029;-64
2022/04/27 03:56:37;;;;;;;1.58;1.20;;;;;;;9.64;82.43;101562.28;5028567;28;20510;-64
2022/04/27 03:59:03;;;;;;;1.73;1.15;;;;;;;9.66;82.19;101565.38;5062267;28;20425;-64
2022/04/27 04:01:29;;;;;;;1.33;0.75;;;;;;;9.51;81.52;101566.75;5031780;28;20108;-64
2022/04/27 04:03:56;;;;;;;2.33;1.33;;;;;;;9.47;82.65;101563.13;5040618;28;20041;-64
2022/04/27 04:06:21;;;;;;;0.57;0.45;;;;;;;9.52;82.49;101568.34;5021068;28;20491;-64
2022/04/27 04:08:47;;;;;;;1.02;0.93;;;;;;;9.43;82.88;101580.22;5025351;28;20043;-64
2022/04/27 04:11:13;;;;;;;1.25;0.73;;;;;;;9.49;82.63;101587.00;5042878;28;20164;-64
2022/04/27 04:14:00;;;;;;;1.00;0.90;;;;;;;9.54;82.67;101592.22;5038297;28;20130;-64
2022/04/27 04:16:46;;;;;;;0.70;0.70;;;;;;;9.62;82.45;101599.44;4996305;28;20046;-64
2022/04/27 04:19:35;;;;;;;0.60;0.60;;;;;;;9.78;81.76;101598.56;5042463;28;20029;-64
2022/04/27 04:22:04;;;;;;;1.17;0.70;;;;;;;9.92;80.12;101604.50;5049611;28;20511;-64
2022/04/27 04:30:33;;;;;;;1.92;0.85;;;;;;;9.66;82.79;101614.59;5034824;28;20040;-64
2022/04/27 04:33:19;;;;;;;0.85;0.75;;;;;;;10.04;79.71;101611.84;5048206;28;20041;-64
2022/04/27 04:35:53;;;;;;;0.63;0.43;;;;;;;10.05;80.32;101618.78;5034594;28;20415;-64
2022/04/27 04:38:19;;;;;;;1.83;0.85;;;;;;;9.77;81.64;101629.28;5047753;28;20032;-64
2022/04/27 04:40:46;;;;;;;1.50;1.10;;;;;;;9.77;82.46;101626.56;5034405;28;20024;-64
2022/04/27 04:43:12;;;;;;;1.85;1.08;;;;;;;9.81;82.78;101624.03;5033947;28;20124;-64
2022/04/27 04:45:39;;;;;;;0.73;0.65;;;;;;;9.80;82.58;101628.59;5031826;28;20033;-64
2022/04/27 04:48:14;;;;;;;1.98;0.95;;;;;;;9.91;82.31;101629.03;5055455;28;20032;-65
2022/04/27 04:51:00;;;;;;;0.68;0.68;;;;;;;9.91;82.20;101629.81;5041428;28;20098;-64
2022/04/27 04:53:41;;;;;;;0.63;0.63;;;;;;;9.99;81.42;101631.66;5033481;28;20458;-64
2022/04/27 04:56:33;;;;;;;0.77;0.75;;;;;;;10.13;81.08;101639.50;5037706;28;20041;-63
2022/04/27 04:59:23;;;;;;;0.60;0.35;;;;;;;10.00;82.04;101638.63;5034862;28;20124;-63
2022/04/27 05:02:18;;;;;;;2.50;0.95;;;;;;;10.05;81.45;101637.63;5020450;28;20542;-63
2022/04/27 05:04:55;;;;;;;1.02;0.70;;;;;;;10.24;80.08;101639.94;5032467;28;20024;-63
2022/04/27 05:07:50;;;;;;;0.43;0.43;;;;;;;10.12;80.97;101639.84;5032134;28;20506;-64
2022/04/27 05:10:36;;;;;;;1.05;0.95;;;;;;;10.22;80.37;101650.22;5049980;28;20515;-63
2022/04/27 05:13:10;;;;;;;0.93;0.63;;;;;;;10.25;81.21;101654.94;5042412;28;20044;-63
2022/04/27 05:15:56;;;;;;;1.65;0.77;;;;;;;10.40;79.60;101652.47;5051641;28;20482;-63
2022/04/27 05:18:40;;;;;;;0.45;0.45;;;;;;;10.44;80.25;101653.38;5051049;28;20098;-64
2022/04/27 05:21:20;;;;;;;1.02;0.77;;;;;;;10.44;80.07;101655.28;5034010;28;20503;-64
2022/04/27 05:24:04;;;;;;;1.15;0.88;;;;;;;10.52;79.60;101663.31;5027983;28;20511;-64
2022/04/27 05:26:55;;;;;;;1.40;0.80;;;;;;;10.60;79.20;101657.06;5023012;28;20511;-64
2022/04/27 05:32:41;;;;;;;1.13;0.73;;;;;;;11.23;77.41;101663.09;5034924;28;20141;-64
2022/04/27 05:35:26;;;;;;;0.90;0.63;;;;;;;11.82;74.24;101672.44;5041581;28;20406;-64
2022/04/27 05:38:08;;;;;;;1.05;0.98;;;;;;;12.43;72.06;101668.50;5043417;28;20060;-63
2022/04/27 05:40:52;;;;;;;0.68;0.57;;;;;;;12.94;69.57;101677.69;5043898;28;20118;-64
2022/04/27 05:43:41;;;;;;;0.80;0.80;;;;;;;13.35;67.20;101671.06;5046603;22;20496;-71
2022/04/27 05:46:18;;;;;;;0.60;0.60;;;;;;;13.85;65.10;101683.91;5018118;28;20029;-71
2022/04/27 05:49:04;;;;;;;1.80;0.88;;;;;;;14.18;62.73;101682.38;5049662;28;20033;-70
2022/04/27 05:51:48;;;;;;;1.40;0.88;;;;;;;14.51;61.57;101683.84;5051461;28;20066;-71
2022/04/27 05:54:21;;;;;;;2.75;0.63;;;;;;;14.73;59.97;101683.16;5049626;28;20028;-71
2022/04/27 05:57:02;;;;;;;1.30;1.10;;;;;;;14.90;59.91;101680.00;5044673;28;20107;-71
2022/04/27 05:59:43;;;;;;;0.70;0.55;;;;;;;15.05;59.36;101692.69;5049651;28;20287;-71
2022/04/27 06:02:29;;;;;;;1.75;0.80;;;;;;;15.19;58.55;101701.13;5029321;28;20041;-71
2022/04/27 06:04:54;;;;;;;0.85;0.55;;;;;;;15.32;57.50;101702.50;5032856;28;20519;-71
2022/04/27 06:07:20;;;;;;;0.82;0.65;;;;;;;15.36;57.56;101714.22;5032316;28;20041;-71
2022/04/27 06:09:46;;;;;;;0.90;0.63;;;;;;;15.33;57.07;101707.56;5021073;28;20702;-71
2022/04/27 06:12:24;;;;;;;5.78;0.80;;;;;;;15.44;57.09;101718.66;5026607;28;20108;-71
2022/04/27 06:15:12;;;;;;;0.50;0.45;;;;;;;15.51;56.77;101715.28;5051385;28;20045;-71
2022/04/27 06:17:39;;;;;;;0.40;0.40;;;;;;;15.34;57.38;101711.06;5006396;28;20037;-71
2022/04/27 06:20:05;;;;;;;0.93;0.40;;;;;;;15.06;58.72;101713.28;5012776;28;20509;-71
2022/04/27 06:22:31;;;;;;;1.33;0.68;;;;;;;14.63;59.42;101719.78;5036895;28;20100;-71
2022/04/27 06:24:57;;;;;;;0.65;0.65;;;;;;;14.40;60.25;101724.31;5039995;28;20083;-72
2022/04/27 06:27:40;;;;;;;0.50;0.45;;;;;;;13.96;60.73;101728.25;5024944;28;20029;-71
2022/04/27 06:30:05;;;;;;;5.82;0.90;;;;;;;13.86;61.56;101735.00;5031933;28;20167;-71
2022/04/27 06:32:34;;;;;;;0.90;0.57;;;;;;;13.40;63.43;101738.44;5014133;28;20056;-71
2022/04/27 06:35:04;;;;;;;1.17;0.95;;;;;;;13.18;64.92;101736.31;5023690;28;20028;-71
2022/04/27 06:37:31;;;;;;;0.60;0.60;;;;;;;13.08;66.16;101747.63;5040601;28;20493;-71
2022/04/27 06:39:57;;;;;;;0.90;0.77;;;;;;;13.06;67.54;101750.69;5028961;28;20083;-71
2022/04/27 06:42:23;;;;;;;0.68;0.60;;;;;;;13.21;67.27;101730.22;5029125;28;20057;-71
2022/04/27 06:45:07;;;;;;;1.17;0.68;;;;;;;13.23;67.13;101741.47;5044385;28;20052;-71
2022/04/27 06:47:51;;;;;;;0.75;0.50;;;;;;;13.06;68.76;101742.56;5031365;28;20072;-71
2022/04/27 06:50:55;;;;;;;1.08;0.50;;;;;;;13.27;66.65;101745.84;4970567;28;20546;-71
2022/04/27 06:53:39;;;;;;;0.90;0.65;;;;;;;13.57;65.28;101740.81;4975423;28;20092;-72
2022/04/27 06:56:27;;;;;;;1.27;1.02;;;;;;;13.36;67.61;101743.78;5017210;28;20041;-72
2022/04/27 06:59:01;;;;;;;2.08;0.80;;;;;;;13.45;67.84;101747.09;5016997;28;20112;-72
2022/04/27 07:01:33;;;;;;;0.82;0.82;;;;;;;13.63;66.63;101742.13;5039563;28;20024;-72
2022/04/27 07:04:06;;;;;;;1.00;0.73;;;;;;;13.88;67.36;101750.91;5025365;28;20025;-72
2022/04/27 07:06:32;;;;;;;3.40;0.68;;;;;;;13.94;64.92;101754.91;5049213;28;20094;-72
2022/04/27 07:08:58;;;;;;;1.73;0.75;;;;;;;13.95;65.11;101751.88;5042861;28;20037;-72
2022/04/27 07:11:23;;;;;;;0.85;0.70;;;;;;;14.08;63.90;101763.38;5050932;28;20675;-72
2022/04/27 07:13:49;;;;;;;2.15;1.20;;;;;;;14.21;61.74;101754.81;5031157;28;20090;-72
2022/04/27 07:16:14;;;;;;;0.52;0.47;;;;;;;14.13;63.10;101765.84;5047492;28;20087;-72
2022/04/27 07:18:39;;;;;;;1.17;0.85;;;;;;;14.17;62.81;101764.75;5044318;28;20035;-72
2022/04/27 07:21:08;;;;;;;0.82;0.77;;;;;;;14.16;63.13;101765.91;5047066;28;20024;-72
2022/04/27 07:23:33;;;;;;;2.45;0.65;;;;;;;14.39;61.68;101764.16;5045721;28;20038;-72
2022/04/27 07:25:59;;;;;;;0.63;0.60;;;;;;;14.40;62.24;101771.16;5045143;28;20025;-72
2022/04/27 07:28:24;;;;;;;1.17;0.60;;;;;;;14.44;61.93;101772.00;5040781;28;20026;-72
2022/04/27 07:30:49;;;;;;;2.92;0.80;;;;;;;14.05;63.39;101783.06;5033293;28;20029;-72
2022/04/27 07:33:15;;;;;;;0.50;0.50;;;;;;;14.17;63.28;101782.94;5051013;28;20088;-72
2022/04/27 07:35:40;;;;;;;4.57;0.55;;;;;;;14.18;64.45;101784.53;5048072;28;20036;-72
2022/04/27 07:38:06;;;;;;;0.85;0.73;;;;;;;14.08;64.78;101791.25;5030994;28;20036;-72
2022/04/27 07:40:31;;;;;;;0.52;0.52;;;;;;;14.03;63.08;101788.81;5050072;28;20466;-72
2022/04/27 07:42:59;;;;;;;1.70;0.63;;;;;;;13.87;65.25;101785.31;5030815;28;20037;-72
2022/04/27 07:45:25;;;;;;;0.65;0.60;;;;;;;14.24;63.56;101794.75;5061352;22;20025;-74
2022/04/27 07:47:50;;;;;;;1.25;0.80;;;;;;;14.40;63.84;101792.81;5043581;28;20133;-69
2022/04/27 07:50:17;;;;;;;0.47;0.47;;;;;;;14.21;63.31;101798.16;5050873;28;20520;-69
2022/04/27 07:52:43;;;;;;;1.13;0.45;;;;;;;14.07;63.11;101795.09;5027676;28;20044;-69
2022/04/27 07:55:09;;;;;;;0.32;0.30;;;;;;;14.08;63.44;101802.09;5045925;28;20063;-68
2022/04/27 07:57:35;;;;;;;2.53;0.82;;;;;;;14.09;63.69;101792.06;5035105;28;20047;-69
2022/04/27 08:00:05;;;;;;;1.35;0.77;;;;;;;14.63;61.56;101805.75;5046141;28;20124;-68
2022/04/27 08:02:37;;;;;;;0.85;0.50;;;;;;;14.65;62.57;101806.97;5022946;28;20067;-70
2022/04/27 08:05:03;;;;;;;0.50;0.47;;;;;;;14.79;61.20;101798.38;5025425;28;20052;-69
2022/04/27 08:07:40;;;;;;;3.83;0.70;;;;;;;14.81;60.62;101806.91;5041749;28;20029;-69
2022/04/27 08:10:07;;;;;;;0.70;0.70;;;;;;;14.76;60.68;101810.69;5031958;28;20022;-68
2022/04/27 08:12:33;;;;;;;2.33;1.08;;;;;;;14.86;60.95;101807.44;5038713;28;20033;-70
2022/04/27 08:14:58;;;;;;;0.45;0.45;;;;;;;14.91;60.84;101803.63;5048006;28;20035;-69
2022/04/27 08:17:24;;;;;;;2.38;0.73;;;;;;;14.96;61.56;101811.50;5043227;28;20044;-71
2022/04/27 08:21:13;;;;;;;0.40;0.30;;;;;;;15.06;61.06;101821.81;5025998;28;20098;-73
2022/04/27 08:22:34;;;;;;;2.92;0.65;;;;;;;15.33;59.89;101818.88;5018897;28;20037;-71
2022/04/27 08:25:00;;;;;;;0.40;0.40;;;;;;;15.67;57.41;101828.09;5030625;28;20013;-70
2022/04/27 08:27:25;;;;;;;4.55;0.80;;;;;;;15.54;58.24;101815.84;5024369;28;20141;-70
2022/04/27 08:29:51;;;;;;;0.60;0.60;;;;;;;15.34;57.93;101815.03;5035739;28;20045;-70
2022/04/27 08:32:16;;;;;;;1.13;0.85;;;;;;;15.55;58.13;101822.81;5038852;28;20029;-70
2022/04/27 08:34:42;;;;;;;1.80;0.85;;;;;;;15.75;58.17;101832.50;5016203;28;20121;-72
2022/04/27 08:37:07;;;;;;;0.50;0.50;;;;;;;16.11;55.55;101829.25;5017578;28;20145;-71
2022/04/27 08:39:33;;;;;;;0.90;0.60;;;;;;;16.05;56.58;101833.44;5042005;28;20049;-70
2022/04/27 08:41:58;;;;;;;1.15;0.70;;;;;;;16.05;56.36;101838.88;5015198;28;20041;-70
2022/04/27 08:44:23;;;;;;;0.75;0.55;;;;;;;16.26;56.63;101831.06;5045295;28;20493;-70
2022/04/27 08:46:50;;;;;;;0.60;0.47;;;;;;;16.43;55.02;101829.00;5022048;28;20041;-70
2022/04/27 08:49:16;;;;;;;0.47;0.47;;;;;;;16.36;55.48;101831.59;5026205;28;20469;-71
2022/04/27 08:51:43;;;;;;;1.23;0.68;;;;;;;16.42;55.28;101838.28;5027435;28;20049;-73
2022/04/27 08:54:08;;;;;;;1.67;0.70;;;;;;;16.49;53.63;101833.00;5001201;28;20408;-70
2022/04/27 08:56:34;;;;;;;1.00;0.70;;;;;;;16.85;54.02;101837.81;5021190;28;20033;-71
2022/04/27 08:59:00;;;;;;;1.48;0.43;;;;;;;17.20;53.96;101835.56;5028507;28;20076;-71
2022/04/27 09:01:25;;;;;;;1.50;0.60;;;;;;;17.53;52.86;101834.81;5027758;28;20433;-71
2022/04/27 09:03:51;;;;;;;1.38;0.75;;;;;;;17.51;52.62;101834.41;5029494;28;20037;-71
2022/04/27 09:06:18;;;;;;;0.82;0.50;;;;;;;17.76;52.02;101838.97;5039116;28;20493;-71
2022/04/27 09:08:55;;;;;;;0.45;0.45;;;;;;;17.78;51.61;101833.91;5019660;28;20133;-70
2022/04/27 09:11:26;;;;;;;2.67;0.57;;;;;;;17.65;50.01;101840.00;5023134;28;20036;-70
2022/04/27 09:13:53;;;;;;;1.05;0.68;;;;;;;17.85;51.19;101842.16;5024642;28;20483;-70
2022/04/27 09:16:21;;;;;;;1.08;0.73;;;;;;;17.95;50.69;101838.75;5029710;28;20037;-71
2022/04/27 09:21:54;;;;;;;1.52;0.57;;;;;;;18.35;48.70;101843.38;5027814;28;20034;-71
2022/04/27 09:24:20;;;;;;;1.33;0.60;;;;;;;18.55;48.64;101841.22;5020864;28;20117;-72
2022/04/27 09:26:58;;;;;;;2.78;1.00;;;;;;;18.58;49.17;101840.47;5002651;28;20030;-70
2022/04/27 09:29:24;;;;;;;2.08;1.02;;;;;;;18.53;48.54;101835.34;5002114;28;20029;-71
2022/04/27 09:31:59;;;;;;;1.27;1.17;;;;;;;18.28;49.11;101828.88;5026662;28;20052;-71
2022/04/27 09:34:27;;;;;;;0.75;0.55;;;;;;;18.15;47.96;101828.41;5026174;28;20044;-71
2022/04/27 09:37:01;;;;;;;1.13;0.90;;;;;;;18.43;49.74;101833.31;5026353;28;20037;-71
2022/04/27 09:39:26;;;;;;;0.80;0.68;;;;;;;18.66;49.03;101831.94;5034151;28;20030;-71
2022/04/27 09:41:52;;;;;;;1.20;0.80;;;;;;;19.06;48.45;101830.22;5030690;28;20098;-71
2022/04/27 09:44:29;;;;;;;1.23;0.50;;;;;;;19.18;48.61;101822.44;5010195;28;20113;-71
2022/04/27 09:46:54;;;;;;;1.17;0.38;;;;;;;19.42;47.74;101827.25;5019931;28;20045;-71
2022/04/27 09:49:20;;;;;;;0.88;0.68;;;;;;;19.60;46.50;101840.97;5044346;28;20060;-71
2022/04/27 09:51:49;;;;;;;1.65;0.60;;;;;;;19.40;46.86;101837.78;5025452;28;20045;-71
2022/04/27 09:54:20;;;;;;;0.63;0.57;;;;;;;19.45;46.84;101834.66;5030243;28;20036;-71
2022/04/27 09:56:50;;;;;;;1.13;0.70;;;;;;;19.55;46.29;101825.72;5031982;28;20044;-71
2022/04/27 09:59:18;;;;;;;2.10;0.98;;;;;;;19.71;45.66;101823.44;5032762;28;20029;-71
2022/04/27 10:01:47;;;;;;;4.30;0.70;;;;;;;19.86;45.50;101826.19;5034566;28;20033;-71
2022/04/27 10:04:18;;;;;;;2.90;0.60;;;;;;;20.14;45.03;101826.97;5036715;28;20108;-70
2022/04/27 10:06:45;;;;;;;0.90;0.60;;;;;;;20.12;43.93;101828.53;5024093;28;20419;-71
2022/04/27 10:09:10;;;;;;;1.00;0.68;;;;;;;19.83;43.69;101826.94;5031382;28;20543;-71
2022/04/27 10:11:37;;;;;;;1.45;0.70;;;;;;;19.78;44.51;101828.13;5024989;28;20041;-71
2022/04/27 10:14:03;;;;;;;2.08;0.73;;;;;;;20.06;45.03;101833.63;5027721;28;20041;-71
2022/04/27 10:16:29;;;;;;;1.55;0.80;;;;;;;20.10;45.01;101828.94;5028165;28;20036;-71
2022/04/27 10:18:55;;;;;;;1.23;0.73;;;;;;;20.51;44.32;101824.66;5028457;28;20040;-70
2022/04/27 10:21:43;;;;;;;2.35;0.88;;;;;;;20.47;43.61;101836.78;5025072;28;20037;-71
2022/04/27 10:24:10;;;;;;;2.08;0.82;;;;;;;20.08;43.36;101825.81;5023338;28;20029;-71
2022/04/27 10:26:36;;;;;;;1.55;0.70;;;;;;;20.34;43.47;101832.88;5022739;28;20045;-71
2022/04/27 10:29:06;;;;;;;0.73;0.60;;;;;;;20.57;43.63;101823.09;5023168;28;20029;-71
2022/04/27 10:31:42;;;;;;;1.70;0.80;;;;;;;20.66;43.96;101817.19;5026414;28;20124;-71
2022/04/27 10:34:26;;;;;;;1.63;0.80;;;;;;;20.97;43.60;101821.78;5024614;28;20049;-71
2022/04/27 10:36:59;;;;;;;1.27;0.52;;;;;;;20.89;42.32;101833.94;5025936;28;20418;-71
2022/04/27 10:39:30;;;;;;;2.53;0.60;;;;;;;21.04;42.39;101830.00;5007890;28;20032;-71
2022/04/27 10:42:04;;;;;;;0.90;0.60;;;;;;;21.30;41.86;101826.78;5013502;28;20045;-70
2022/04/27 10:44:50;;;;;;;0.40;0.40;;;;;;;21.26;41.81;101820.53;5038965;28;20037;-70
2022/04/27 10:47:17;;;;;;;1.00;0.70;;;;;;;21.19;42.10;101828.00;5038514;28;20048;-70
2022/04/27 10:49:43;;;;;;;2.05;0.75;;;;;;;21.31;41.02;101827.56;5035490;28;20037;-69
2022/04/27 10:52:09;;;;;;;1.65;0.90;;;;;;;21.23;40.84;101832.31;5032733;28;20041;-70
2022/04/27 10:54:39;;;;;;;1.45;0.52;;;;;;;21.16;40.39;101826.84;5014382;28;20037;-70
2022/04/27 10:57:30;;;;;;;1.17;0.60;;;;;;;20.99;40.38;101829.59;5027682;28;20048;-69
2022/04/27 11:00:03;;;;;;;1.35;0.80;;;;;;;20.86;41.30;101829.28;5023833;28;20045;-70
2022/04/27 11:02:38;;;;;;;4.22;0.77;;;;;;;20.74;40.71;101829.69;5025290;28;20073;-70
2022/04/27 11:05:10;;;;;;;1.58;0.77;;;;;;;21.19;41.73;101834.28;5019214;28;20041;-70
2022/04/27 11:07:54;;;;;;;;;;;;;;;21.08;41.69;101844.47;5017856;28;20132;-70
2022/04/27 11:10:21;;;;;;;1.23;0.65;;;;;;;20.97;41.99;101840.97;5017843;28;19919;-70
2022/04/27 11:12:49;;;;;;;6.53;0.90;;;;;;;20.76;42.02;101845.72;5031708;28;20129;-70
2022/04/27 11:15:18;;;;;;;3.88;1.17;;;;;;;20.49;42.72;101848.09;5029820;28;20083;-71
2022/04/27 11:17:44;;;;;;;2.08;1.23;;;;;;;19.69;44.66;101849.56;5023288;28;20056;-68
2022/04/27 11:20:32;;;;;;;1.98;1.30;;;;;;;19.84;43.81;101840.22;5028990;28;20041;-73
2022/04/27 11:23:03;;;;;;;1.55;0.80;;;;;;;19.93;44.20;101842.59;5026973;28;20036;-69
2022/04/27 11:25:36;;;;;;;1.43;0.90;;;;;;;20.30;44.22;101845.78;5028531;28;20057;-72
2022/04/27 11:28:03;;;;;;;2.67;1.10;;;;;;;20.06;43.00;101843.78;5025583;28;20732;-68
2022/04/27 11:30:31;;;;;;;1.45;0.60;;;;;;;20.12;43.40;101842.22;5023809;28;20030;-70
2022/04/27 11:32:57;;;;;;;2.35;0.85;;;;;;;20.32;43.81;101851.66;5027922;28;20562;-68
2022/04/27 11:35:25;;;;;;;3.42;1.40;;;;;;;20.31;43.18;101845.38;5027051;28;20092;-68
2022/04/27 11:37:55;;;;;;;12.82;2.85;;;;;;;20.53;42.26;101844.22;5007547;28;20530;-69
2022/04/27 11:40:28;;;;;;;6.90;2.75;;;;;;;20.80;43.12;101844.53;5000912;28;20504;-69
2022/04/27 11:42:53;;;;;;;2.78;1.40;;;;;;;21.26;42.31;101849.88;4998747;28;20040;-69
2022/04/27 11:45:21;;;;;;;6.22;1.98;;;;;;;21.17;41.10;101850.34;5024879;28;20025;-69
2022/04/27 11:48:01;;;;;;;44.08;9.57;;;;;;;21.22;40.35;101852.66;5022009;28;20033;-69
2022/04/27 11:50:29;;;;;;;30.27;9.18;;;;;;;21.30;39.83;101845.97;5025341;28;20060;-70
2022/04/27 11:53:15;;;;;;;22.85;7.63;;;;;;;21.53;40.20;101859.16;5031787;28;20044;-69
2022/04/27 11:55:44;;;;;;;2.72;1.17;;;;;;;21.38;40.50;101854.94;5024724;28;20123;-69
2022/04/27 11:58:21;;;;;;;1.17;0.90;;;;;;;21.14;41.17;101844.84;5019852;28;21500;-69